Time;durP1;ratioP1;P1;durP2;ratioP2;P2;SDS_P1;SDS_P2;PMS_P1;PMS_P2;Temp;Humidity;BMP_temperature;BMP_pressure;BME280_temperature;BME280_humidity;BME280_pressure;Samples;Min_cycle;Max_cycle;Signal;HPM_P1;HPM_P2
2023/02/25 00:00:18;;;;;;;22.33;4.07;;;4.30;99.90;;;;;;5079922;28;20043;-70
2023/02/25 00:02:48;;;;;;;23.08;3.33;;;4.30;99.90;;;;;;5066758;28;20484;-71
2023/02/25 00:05:15;;;;;;;18.42;3.08;;;4.30;99.90;;;;;;5068609;28;20489;-69
2023/02/25 00:07:41;;;;;;;31.92;4.13;;;4.30;99.90;;;;;;5066120;28;20415;-69
2023/02/25 00:10:10;;;;;;;21.13;3.35;;;4.30;99.90;;;;;;5068694;28;20127;-69
2023/02/25 00:12:37;;;;;;;25.65;3.75;;;4.30;99.90;;;;;;5072739;28;20499;-69
2023/02/25 00:15:03;;;;;;;23.58;3.15;;;4.30;99.90;;;;;;5063065;28;20032;-69
2023/02/25 00:17:29;;;;;;;25.50;4.05;;;4.30;99.90;;;;;;5069752;28;20054;-70
2023/02/25 00:19:56;;;;;;;26.05;3.85;;;4.20;99.90;;;;;;5069765;28;20040;-69
2023/02/25 00:22:23;;;;;;;26.85;3.47;;;4.10;99.90;;;;;;5068085;28;20501;-69
2023/02/25 00:24:53;;;;;;;18.88;2.88;;;4.10;99.90;;;;;;5080748;28;20485;-69
2023/02/25 00:27:19;;;;;;;18.70;3.25;;;4.00;99.90;;;;;;5082908;28;20028;-69
2023/02/25 00:29:45;;;;;;;26.55;3.85;;;4.00;99.90;;;;;;5054530;28;20067;-69
2023/02/25 00:32:10;;;;;;;23.33;3.58;;;4.00;99.90;;;;;;5068836;28;20036;-69
2023/02/25 00:34:36;;;;;;;23.80;4.00;;;4.00;99.90;;;;;;5063172;28;20039;-69
2023/02/25 00:37:03;;;;;;;21.70;3.65;;;4.00;99.90;;;;;;5062928;28;20051;-69
2023/02/25 00:39:40;;;;;;;16.67;3.45;;;4.00;99.90;;;;;;5077868;28;20048;-69
2023/02/25 00:42:12;;;;;;;23.20;3.63;;;4.10;99.90;;;;;;5055705;28;20047;-70
2023/02/25 00:44:38;;;;;;;21.52;3.33;;;4.10;99.90;;;;;;5072178;28;20036;-70
2023/02/25 00:47:04;;;;;;;19.55;3.00;;;4.10;99.90;;;;;;5083363;28;20314;-70
2023/02/25 00:49:30;;;;;;;22.73;3.58;;;4.10;99.90;;;;;;5068372;28;20131;-69
2023/02/25 00:51:57;;;;;;;26.55;4.10;;;4.20;99.90;;;;;;5070844;28;20115;-70
2023/02/25 00:54:23;;;;;;;22.25;3.50;;;4.20;99.90;;;;;;5082058;28;20120;-69
2023/02/25 00:56:48;;;;;;;24.70;3.05;;;4.20;99.90;;;;;;5085659;28;20460;-69
2023/02/25 00:59:14;;;;;;;17.25;2.83;;;4.20;99.90;;;;;;5076010;28;20044;-70
2023/02/25 01:01:40;;;;;;;24.45;4.40;;;4.20;99.90;;;;;;5071402;28;20044;-69
2023/02/25 01:04:07;;;;;;;19.30;3.08;;;4.20;99.90;;;;;;5081251;28;20364;-69
2023/02/25 01:06:35;;;;;;;20.65;3.97;;;4.20;99.90;;;;;;5083780;28;20075;-69
2023/02/25 01:09:01;;;;;;;25.85;3.97;;;4.10;99.90;;;;;;5071206;28;20036;-69
2023/02/25 01:11:30;;;;;;;26.20;3.85;;;4.20;99.90;;;;;;5069924;28;20063;-69
2023/02/25 01:14:10;;;;;;;22.92;2.90;;;4.20;99.90;;;;;;5083632;28;20140;-69
2023/02/25 01:16:36;;;;;;;24.45;3.70;;;4.10;99.90;;;;;;5073026;28;20078;-69
2023/02/25 01:19:05;;;;;;;25.42;3.80;;;4.10;99.90;;;;;;5074352;28;20032;-69
2023/02/25 01:21:35;;;;;;;26.08;3.80;;;4.10;99.90;;;;;;5071693;28;20051;-69
2023/02/25 01:24:14;;;;;;;25.38;5.03;;;4.10;99.90;;;;;;5080636;28;20487;-69
2023/02/25 01:26:42;;;;;;;22.88;3.47;;;4.20;99.90;;;;;;5070419;28;20067;-69
2023/02/25 01:29:12;;;;;;;23.92;3.78;;;4.20;99.90;;;;;;5075150;28;20071;-69
2023/02/25 01:31:38;;;;;;;23.25;4.57;;;4.20;99.90;;;;;;5089961;28;20040;-69
2023/02/25 01:34:06;;;;;;;22.63;3.50;;;4.20;99.90;;;;;;5087567;28;20164;-69
2023/02/25 01:36:33;;;;;;;19.75;3.20;;;4.20;99.90;;;;;;5070369;28;20564;-69
2023/02/25 01:39:00;;;;;;;23.58;3.45;;;4.20;99.90;;;;;;5090157;28;20412;-69
2023/02/25 01:41:28;;;;;;;19.98;3.55;;;4.20;99.90;;;;;;5067825;28;20043;-69
2023/02/25 01:44:18;;;;;;;20.70;3.15;;;4.20;99.90;;;;;;5071444;28;20115;-69
2023/02/25 01:46:46;;;;;;;18.77;2.83;;;4.20;99.90;;;;;;5073872;28;20342;-69
2023/02/25 01:49:28;;;;;;;23.00;4.15;;;4.20;99.90;;;;;;5087547;28;20042;-69
2023/02/25 01:52:07;;;;;;;19.65;3.25;;;4.20;99.90;;;;;;5064853;28;20119;-69
2023/02/25 01:54:35;;;;;;;21.10;3.25;;;4.20;99.90;;;;;;5065721;28;20411;-69
2023/02/25 01:57:04;;;;;;;23.35;3.40;;;4.20;99.90;;;;;;5086186;28;20498;-69
2023/02/25 01:59:30;;;;;;;19.30;3.28;;;4.20;99.90;;;;;;5067700;28;20071;-69
2023/02/25 02:01:56;;;;;;;17.20;2.78;;;4.20;99.90;;;;;;5082248;28;20544;-69
2023/02/25 02:04:24;;;;;;;17.80;3.30;;;4.20;99.90;;;;;;5074743;28;20044;-69
2023/02/25 02:06:51;;;;;;;19.60;2.90;;;4.30;99.90;;;;;;5069184;28;20055;-69
2023/02/25 02:09:28;;;;;;;26.88;4.13;;;4.20;99.90;;;;;;5069351;28;20055;-69
2023/02/25 02:11:58;;;;;;;21.63;3.42;;;4.30;99.90;;;;;;5081668;28;20039;-69
2023/02/25 02:14:28;;;;;;;21.17;3.45;;;4.30;99.90;;;;;;5069416;28;20044;-69
2023/02/25 02:16:56;;;;;;;21.48;3.33;;;4.30;99.90;;;;;;5082761;28;20047;-69
2023/02/25 02:19:50;;;;;;;25.15;3.35;;;4.30;99.90;;;;;;5073892;28;20052;-69
2023/02/25 02:22:38;;;;;;;14.55;2.92;;;4.30;99.90;;;;;;5068219;28;20036;-69
2023/02/25 02:25:25;;;;;;;19.75;3.60;;;4.30;99.90;;;;;;5069950;28;20056;-68
2023/02/25 02:28:26;;;;;;;16.05;2.63;;;4.30;99.90;;;;;;5068191;28;20037;-69
2023/02/25 02:31:04;;;;;;;20.80;2.50;;;4.20;99.90;;;;;;5059573;28;20033;-68
2023/02/25 02:33:46;;;;;;;22.70;3.60;;;4.20;99.90;;;;;;5067828;28;20040;-70
2023/02/25 02:36:49;;;;;;;17.90;2.92;;;4.20;99.90;;;;;;5083490;28;20487;-69
2023/02/25 02:39:28;;;;;;;18.63;2.55;;;4.20;99.90;;;;;;5057085;28;20053;-69
2023/02/25 02:42:17;;;;;;;27.90;3.05;;;4.20;99.90;;;;;;5065527;28;20268;-69
2023/02/25 02:45:21;;;;;;;27.77;3.80;;;4.30;99.90;;;;;;5057847;28;20145;-69
2023/02/25 02:48:14;;;;;;;23.98;3.42;;;4.30;99.90;;;;;;5062698;28;20033;-68
2023/02/25 02:50:45;;;;;;;23.15;4.05;;;4.30;99.90;;;;;;5051287;28;20041;-69
2023/02/25 02:53:17;;;;;;;22.60;2.67;;;4.30;99.90;;;;;;5050329;28;20037;-70
2023/02/25 02:55:46;;;;;;;22.48;3.28;;;4.30;99.90;;;;;;5065066;28;20079;-70
2023/02/25 02:58:25;;;;;;;25.13;3.75;;;4.30;99.90;;;;;;5061270;28;20040;-69
2023/02/25 03:00:58;;;;;;;18.58;3.00;;;4.30;99.90;;;;;;5057900;28;20048;-69
2023/02/25 03:03:38;;;;;;;18.08;3.03;;;4.30;99.90;;;;;;5065629;28;20056;-69
2023/02/25 03:06:10;;;;;;;19.10;3.92;;;4.40;99.90;;;;;;5064799;28;20128;-69
2023/02/25 03:08:43;;;;;;;23.95;3.88;;;4.40;99.90;;;;;;5064123;28;20115;-69
2023/02/25 03:11:10;;;;;;;22.77;3.65;;;4.40;99.90;;;;;;5067128;28;20033;-69
2023/02/25 03:13:35;;;;;;;24.02;3.15;;;4.40;99.90;;;;;;5068357;28;20075;-69
2023/02/25 03:16:06;;;;;;;29.92;3.42;;;4.40;99.90;;;;;;5065251;28;20061;-69
2023/02/25 03:18:56;;;;;;;23.02;3.60;;;4.40;99.90;;;;;;5059151;28;20051;-69
2023/02/25 03:21:28;;;;;;;22.70;4.43;;;4.40;99.90;;;;;;5060403;28;20083;-69
2023/02/25 03:23:55;;;;;;;16.90;2.88;;;4.40;99.90;;;;;;5063552;28;20080;-70
2023/02/25 03:26:29;;;;;;;21.70;3.40;;;4.40;99.90;;;;;;5057189;28;20048;-70
2023/02/25 03:28:55;;;;;;;15.57;2.05;;;4.40;99.90;;;;;;5081803;28;20041;-69
2023/02/25 03:31:33;;;;;;;17.25;2.58;;;4.40;99.90;;;;;;5064223;28;20032;-70
2023/02/25 03:34:14;;;;;;;15.18;2.40;;;4.30;99.90;;;;;;5066477;28;20510;-70
2023/02/25 03:36:44;;;;;;;13.75;2.17;;;4.30;99.90;;;;;;5061957;28;20177;-70
2023/02/25 03:39:18;;;;;;;16.90;2.45;;;4.20;99.90;;;;;;5068929;28;20064;-70
2023/02/25 03:41:49;;;;;;;18.27;2.38;;;4.10;99.90;;;;;;5067414;28;20036;-70
2023/02/25 03:44:21;;;;;;;19.45;3.40;;;4.00;99.90;;;;;;5068481;28;20046;-70
2023/02/25 03:46:47;;;;;;;19.60;2.63;;;4.00;99.90;;;;;;5068475;28;20500;-70
2023/02/25 03:49:30;;;;;;;20.45;3.25;;;4.00;99.90;;;;;;5078756;28;20036;-69
2023/02/25 03:51:57;;;;;;;24.63;3.25;;;3.90;99.90;;;;;;5068017;28;20036;-69
2023/02/25 03:54:23;;;;;;;20.08;2.95;;;3.90;99.90;;;;;;5071597;28;20079;-69
2023/02/25 03:56:50;;;;;;;26.98;3.30;;;3.90;99.90;;;;;;5079041;28;20538;-69
2023/02/25 03:59:17;;;;;;;21.55;3.50;;;4.00;99.90;;;;;;5067049;28;20115;-69
2023/02/25 04:01:47;;;;;;;19.77;2.95;;;4.00;99.90;;;;;;5067908;28;20055;-69
2023/02/25 04:04:13;;;;;;;22.73;3.08;;;4.10;99.90;;;;;;5060720;28;20132;-69
2023/02/25 04:06:39;;;;;;;25.25;3.22;;;4.00;99.90;;;;;;5058906;28;20134;-70
2023/02/25 04:09:05;;;;;;;26.45;3.92;;;4.00;99.90;;;;;;5060625;28;20096;-70
2023/02/25 04:11:31;;;;;;;20.27;2.97;;;4.00;99.90;;;;;;5065207;28;20044;-70
2023/02/25 04:13:57;;;;;;;20.35;3.38;;;4.00;99.90;;;;;;5071491;28;20529;-70
2023/02/25 04:16:22;;;;;;;14.98;2.42;;;4.00;99.90;;;;;;5053514;28;20104;-69
2023/02/25 04:18:48;;;;;;;17.08;2.40;;;4.10;99.90;;;;;;5068360;28;20105;-70
2023/02/25 04:21:35;;;;;;;14.48;2.83;;;4.00;99.90;;;;;;5067142;28;20732;-70
2023/02/25 04:24:02;;;;;;;14.20;2.40;;;4.00;99.90;;;;;;5061497;28;20040;-70
2023/02/25 04:26:27;;;;;;;17.00;2.25;;;4.00;99.90;;;;;;5067302;28;20028;-69
2023/02/25 04:28:53;;;;;;;13.45;2.15;;;4.10;99.90;;;;;;5063300;28;20185;-70
2023/02/25 04:31:19;;;;;;;13.27;2.17;;;4.10;99.90;;;;;;5064376;28;20047;-69
2023/02/25 04:33:48;;;;;;;15.05;2.00;;;4.10;99.90;;;;;;5065567;28;20032;-69
2023/02/25 04:36:29;;;;;;;11.10;1.85;;;4.10;99.90;;;;;;5064096;28;20448;-69
2023/02/25 04:38:56;;;;;;;10.65;1.50;;;4.10;99.90;;;;;;5065702;28;20099;-69
2023/02/25 04:41:23;;;;;;;12.30;1.95;;;4.10;99.90;;;;;;5067301;28;20036;-69
2023/02/25 04:43:49;;;;;;;9.15;1.13;;;4.10;99.90;;;;;;5061339;28;20041;-69
2023/02/25 04:46:15;;;;;;;8.77;1.38;;;4.10;99.90;;;;;;5063736;28;20044;-69
2023/02/25 04:48:40;;;;;;;13.85;1.85;;;4.10;99.90;;;;;;5069539;28;20043;-69
2023/02/25 04:51:06;;;;;;;9.32;1.80;;;4.00;99.90;;;;;;5077529;28;20063;-69
2023/02/25 04:53:33;;;;;;;13.48;1.80;;;4.10;99.90;;;;;;5065077;28;20137;-69
2023/02/25 04:56:04;;;;;;;12.48;1.90;;;4.00;99.90;;;;;;5064156;28;20037;-69
2023/02/25 04:58:32;;;;;;;8.60;1.42;;;4.10;99.90;;;;;;5065836;28;20133;-68
2023/02/25 05:01:00;;;;;;;13.25;2.10;;;4.10;99.90;;;;;;5066444;28;20042;-69
2023/02/25 05:03:26;;;;;;;4.72;0.70;;;4.10;99.90;;;;;;5067694;28;20082;-69
2023/02/25 05:05:52;;;;;;;5.93;0.60;;;4.10;99.90;;;;;;5063291;28;20106;-70
2023/02/25 05:08:18;;;;;;;5.22;0.80;;;4.00;99.90;;;;;;5062902;28;20147;-69
2023/02/25 05:10:44;;;;;;;5.20;0.60;;;4.00;99.90;;;;;;5066746;28;20188;-71
2023/02/25 05:13:09;;;;;;;7.75;1.00;;;3.90;99.90;;;;;;5064528;28;20028;-71
2023/02/25 05:15:35;;;;;;;4.18;0.80;;;3.80;99.90;;;;;;5067133;28;20097;-71
2023/02/25 05:18:01;;;;;;;6.63;0.73;;;3.80;99.90;;;;;;5063229;28;20093;-71
2023/02/25 05:20:27;;;;;;;4.38;0.70;;;3.80;99.90;;;;;;5059881;28;20037;-71
2023/02/25 05:22:53;;;;;;;9.23;0.95;;;3.70;99.90;;;;;;5058421;28;20032;-71
2023/02/25 05:25:19;;;;;;;3.65;0.40;;;3.70;99.90;;;;;;5067925;28;20407;-71
2023/02/25 05:27:45;;;;;;;2.58;0.32;;;3.70;99.90;;;;;;5063667;28;20045;-71
2023/02/25 05:30:11;;;;;;;6.30;0.40;;;3.70;99.90;;;;;;5056209;28;20072;-71
2023/02/25 05:32:37;;;;;;;5.30;0.68;;;3.70;99.90;;;;;;5068657;28;20139;-71
2023/02/25 05:35:05;;;;;;;4.32;0.60;;;3.70;99.90;;;;;;5064012;28;20988;-71
2023/02/25 05:37:31;;;;;;;3.80;0.60;;;3.70;99.90;;;;;;5067191;28;20508;-70
2023/02/25 05:39:57;;;;;;;4.00;0.43;;;3.70;99.90;;;;;;5066443;28;20048;-70
2023/02/25 05:42:23;;;;;;;6.13;2.00;;;3.70;99.90;;;;;;5068260;28;20044;-70
2023/02/25 05:44:49;;;;;;;6.50;0.70;;;3.70;99.90;;;;;;5070091;28;20047;-70
2023/02/25 05:47:15;;;;;;;6.63;1.02;;;3.70;99.90;;;;;;5071352;28;20123;-70
2023/02/25 05:49:42;;;;;;;6.15;0.57;;;3.70;99.90;;;;;;5071464;28;20123;-70
2023/02/25 05:52:08;;;;;;;3.70;0.50;;;3.70;99.90;;;;;;5067852;28;20093;-70
2023/02/25 05:54:34;;;;;;;6.60;0.70;;;3.60;99.90;;;;;;5074211;28;20052;-70
2023/02/25 05:57:00;;;;;;;6.30;0.80;;;3.60;99.90;;;;;;5089568;28;20044;-70
2023/02/25 05:59:25;;;;;;;7.72;0.70;;;3.60;99.90;;;;;;5074401;28;20083;-70
2023/02/25 06:01:51;;;;;;;4.13;0.70;;;3.60;99.90;;;;;;5076137;28;20407;-70
2023/02/25 06:04:17;;;;;;;7.55;0.80;;;3.50;99.90;;;;;;5066267;28;20480;-70
2023/02/25 06:06:49;;;;;;;4.22;0.35;;;3.50;99.90;;;;;;5074084;28;20055;-70
2023/02/25 06:09:20;;;;;;;5.50;0.60;;;3.50;99.90;;;;;;5064299;28;20552;-70
2023/02/25 06:11:47;;;;;;;8.10;0.73;;;3.40;99.90;;;;;;5074992;28;20044;-70
2023/02/25 06:14:14;;;;;;;6.35;0.70;;;3.40;99.90;;;;;;5064445;28;20108;-70
2023/02/25 06:16:41;;;;;;;6.40;0.70;;;3.40;99.90;;;;;;5074616;28;20177;-70
2023/02/25 06:19:08;;;;;;;8.20;0.63;;;3.30;99.90;;;;;;5069760;28;20036;-69
2023/02/25 06:21:34;;;;;;;7.25;1.00;;;3.30;99.90;;;;;;5070057;28;20040;-70
2023/02/25 06:24:02;;;;;;;4.80;0.50;;;3.20;99.90;;;;;;5068872;28;20074;-70
2023/02/25 06:26:28;;;;;;;2.47;0.60;;;3.20;99.90;;;;;;5069560;28;20036;-69
2023/02/25 06:28:55;;;;;;;10.52;1.00;;;3.20;99.90;;;;;;5084002;28;20128;-70
2023/02/25 06:31:22;;;;;;;6.68;0.80;;;3.20;99.90;;;;;;5080431;28;20535;-70
2023/02/25 06:33:49;;;;;;;5.00;0.77;;;3.20;99.90;;;;;;5086605;28;20032;-70
2023/02/25 06:36:16;;;;;;;5.03;0.60;;;3.20;99.90;;;;;;5068142;28;20111;-69
2023/02/25 06:38:44;;;;;;;4.95;0.60;;;3.30;99.90;;;;;;5086499;28;20060;-70
2023/02/25 06:41:16;;;;;;;3.40;0.60;;;3.30;99.90;;;;;;5064459;28;20040;-69
2023/02/25 06:43:43;;;;;;;4.57;0.45;;;3.30;99.90;;;;;;5055701;28;20040;-69
2023/02/25 06:46:11;;;;;;;5.05;0.80;;;3.30;99.90;;;;;;5075070;28;20048;-69
2023/02/25 06:48:37;;;;;;;8.00;0.70;;;3.30;99.90;;;;;;5079415;28;20047;-69
2023/02/25 06:51:08;;;;;;;7.75;0.73;;;3.30;99.90;;;;;;5068456;28;20467;-69
2023/02/25 06:53:38;;;;;;;5.30;0.63;;;3.30;99.90;;;;;;5089359;28;20513;-69
2023/02/25 06:56:07;;;;;;;7.15;0.80;;;3.40;99.90;;;;;;5073215;28;20401;-69
2023/02/25 06:58:33;;;;;;;6.65;0.85;;;3.30;99.90;;;;;;5067748;28;20181;-70
2023/02/25 07:00:59;;;;;;;6.07;1.33;;;3.40;99.90;;;;;;5074380;28;20097;-70
2023/02/25 07:03:25;;;;;;;5.78;0.80;;;3.30;99.90;;;;;;5087157;28;20131;-70
2023/02/25 07:05:52;;;;;;;5.47;1.10;;;3.40;99.90;;;;;;5050232;28;20093;-70
2023/02/25 07:08:17;;;;;;;5.03;0.98;;;3.40;99.90;;;;;;5064086;28;20119;-69
2023/02/25 07:10:43;;;;;;;5.15;0.65;;;3.50;99.90;;;;;;5066257;28;20042;-69
2023/02/25 07:13:13;;;;;;;7.10;0.90;;;3.40;99.90;;;;;;5064920;28;20040;-71
2023/02/25 07:15:39;;;;;;;4.22;0.50;;;3.40;99.90;;;;;;5062426;28;20032;-71
2023/02/25 07:18:05;;;;;;;2.03;0.40;;;3.40;99.90;;;;;;5074276;28;20044;-71
2023/02/25 07:20:30;;;;;;;4.90;0.30;;;3.40;99.90;;;;;;5093176;28;20055;-71
2023/02/25 07:22:56;;;;;;;3.65;0.30;;;3.40;99.90;;;;;;5071645;28;20058;-71
2023/02/25 07:25:22;;;;;;;2.83;0.43;;;3.40;99.90;;;;;;5076483;28;20475;-71
2023/02/25 07:27:48;;;;;;;5.30;0.45;;;3.30;99.90;;;;;;5071735;28;20032;-71
2023/02/25 07:30:14;;;;;;;3.95;0.45;;;3.30;99.90;;;;;;5075631;28;20467;-71
2023/02/25 07:32:41;;;;;;;3.90;0.30;;;3.30;99.90;;;;;;5073192;28;20400;-70
2023/02/25 07:35:08;;;;;;;3.28;0.35;;;3.30;99.90;;;;;;5072928;28;20040;-70
2023/02/25 07:37:34;;;;;;;4.40;0.43;;;3.40;99.90;;;;;;5054671;28;20109;-70
2023/02/25 07:39:59;;;;;;;3.05;0.45;;;3.40;99.90;;;;;;5085154;28;20117;-70
2023/02/25 07:42:26;;;;;;;1.55;0.38;;;3.40;99.90;;;;;;5073108;28;20032;-69
2023/02/25 07:44:52;;;;;;;1.63;0.20;;;3.40;99.90;;;;;;5077088;28;20032;-69
2023/02/25 07:47:18;;;;;;;5.68;0.30;;;3.50;99.90;;;;;;5075814;28;20410;-69
2023/02/25 07:49:44;;;;;;;1.52;0.10;;;3.60;99.90;;;;;;5067213;28;20523;-69
2023/02/25 07:52:10;;;;;;;1.92;0.20;;;3.60;99.90;;;;;;5068625;28;20047;-69
2023/02/25 07:54:36;;;;;;;4.47;0.70;;;3.60;99.90;;;;;;5048729;28;20135;-69
2023/02/25 07:57:02;;;;;;;4.30;0.38;;;3.60;99.90;;;;;;5065498;28;20032;-70
2023/02/25 07:59:27;;;;;;;3.50;0.40;;;3.60;99.90;;;;;;5082524;28;20071;-70
2023/02/25 08:01:53;;;;;;;2.88;0.30;;;3.70;99.90;;;;;;5066310;28;20601;-70
2023/02/25 08:04:19;;;;;;;7.25;0.40;;;3.70;99.90;;;;;;5063735;28;20448;-70
2023/02/25 08:06:46;;;;;;;6.35;0.82;;;3.70;99.90;;;;;;5069067;28;20326;-70
2023/02/25 08:09:12;;;;;;;6.28;1.10;;;3.80;99.90;;;;;;5063369;28;20566;-70
2023/02/25 08:11:39;;;;;;;9.52;0.80;;;3.90;99.90;;;;;;5061318;28;20092;-70
2023/02/25 08:14:05;;;;;;;5.95;0.70;;;4.30;99.90;;;;;;5066195;28;20115;-70
2023/02/25 08:16:32;;;;;;;6.13;1.13;;;5.10;99.90;;;;;;5061255;28;20036;-70
2023/02/25 08:18:58;;;;;;;12.00;1.10;;;5.30;99.90;;;;;;5064460;28;20114;-70
2023/02/25 08:21:24;;;;;;;8.43;1.60;;;5.20;99.90;;;;;;5062448;28;20100;-70
2023/02/25 08:23:52;;;;;;;9.73;1.30;;;5.70;99.90;;;;;;5069293;28;20047;-70
2023/02/25 08:26:21;;;;;;;7.95;1.35;;;6.70;99.90;;;;;;5084662;28;20560;-70
2023/02/25 08:28:47;;;;;;;10.05;1.27;;;7.40;99.90;;;;;;5073232;28;20085;-70
2023/02/25 08:31:13;;;;;;;9.10;0.90;;;7.50;99.90;;;;;;5069368;28;20476;-70
2023/02/25 08:33:48;;;;;;;7.70;0.90;;;8.10;99.90;;;;;;5076702;28;20052;-70
2023/02/25 08:36:19;;;;;;;9.90;1.00;;;9.00;99.90;;;;;;5059265;28;20036;-70
2023/02/25 08:38:45;;;;;;;4.95;0.90;;;9.80;99.90;;;;;;5093618;28;20057;-70
2023/02/25 08:41:11;;;;;;;8.93;2.25;;;10.40;99.90;;;;;;5093775;28;20040;-70
2023/02/25 08:43:38;;;;;;;11.25;1.60;;;10.80;99.90;;;;;;5072979;28;20499;-70
2023/02/25 08:46:05;;;;;;;7.82;1.10;;;11.00;99.90;;;;;;5071826;28;20048;-70
2023/02/25 08:48:31;;;;;;;7.32;1.35;;;11.20;99.90;;;;;;5085747;28;20147;-70
2023/02/25 08:51:02;;;;;;;9.25;1.20;;;11.30;99.90;;;;;;5073528;28;20085;-70
2023/02/25 08:53:28;;;;;;;11.73;1.33;;;11.30;99.90;;;;;;5076018;28;20039;-70
2023/02/25 08:55:54;;;;;;;8.77;1.45;;;9.90;99.90;;;;;;5069632;28;20608;-70
2023/02/25 08:58:20;;;;;;;9.52;1.70;;;8.60;99.90;;;;;;5074781;28;20048;-70
2023/02/25 09:00:48;;;;;;;8.00;1.30;;;7.50;99.90;;;;;;5087022;28;20063;-70
2023/02/25 09:03:14;;;;;;;8.55;1.60;;;6.50;99.90;;;;;;5072447;28;20044;-70
2023/02/25 09:05:40;;;;;;;9.40;1.50;;;6.00;99.90;;;;;;5071994;28;20105;-70
2023/02/25 09:08:05;;;;;;;9.23;1.30;;;5.70;99.90;;;;;;5075111;28;20127;-69
2023/02/25 09:10:33;;;;;;;10.95;1.30;;;5.50;99.90;;;;;;5069551;28;20036;-70
2023/02/25 09:12:58;;;;;;;6.85;1.40;;;5.40;99.90;;;;;;5064067;28;20858;-70
2023/02/25 09:15:24;;;;;;;12.80;1.70;;;5.40;99.90;;;;;;5064238;28;20131;-70
2023/02/25 09:17:51;;;;;;;11.23;1.85;;;5.30;99.90;;;;;;5067081;28;20063;-69
2023/02/25 09:20:17;;;;;;;9.52;1.33;;;5.30;99.90;;;;;;5085391;28;20127;-70
2023/02/25 09:22:43;;;;;;;9.55;1.38;;;5.50;99.90;;;;;;5074264;28;20120;-70
2023/02/25 09:25:09;;;;;;;12.98;1.85;;;6.10;99.90;;;;;;5068819;28;20082;-69
2023/02/25 09:27:35;;;;;;;8.98;1.77;;;6.20;99.90;;;;;;5071547;28;20036;-69
2023/02/25 09:30:01;;;;;;;11.38;1.30;;;6.80;99.90;;;;;;5088270;28;20119;-69
2023/02/25 09:32:26;;;;;;;9.75;1.80;;;7.30;99.90;;;;;;5089086;28;20118;-69
2023/02/25 09:34:52;;;;;;;7.22;1.33;;;7.40;99.90;;;;;;5076291;28;20044;-69
2023/02/25 09:37:21;;;;;;;12.55;1.63;;;7.40;99.90;;;;;;5091288;28;20047;-70
2023/02/25 09:39:47;;;;;;;9.77;1.20;;;7.20;99.90;;;;;;5069860;28;20120;-69
2023/02/25 09:42:20;;;;;;;9.38;1.35;;;6.80;99.90;;;;;;5073617;28;20101;-69
2023/02/25 09:44:53;;;;;;;13.57;1.75;;;6.30;99.90;;;;;;5067836;28;20062;-69
2023/02/25 09:47:31;;;;;;;11.35;1.33;;;5.90;99.90;;;;;;5070368;28;20093;-69
2023/02/25 09:50:11;;;;;;;6.68;1.00;;;5.60;99.90;;;;;;5075762;28;20044;-68
2023/02/25 09:53:14;;;;;;;7.78;1.17;;;5.30;99.90;;;;;;5088617;28;20036;-68
2023/02/25 09:55:42;;;;;;;10.68;1.88;;;5.40;99.90;;;;;;5040070;28;20044;-68
2023/02/25 09:58:30;;;;;;;12.40;1.65;;;6.50;99.90;;;;;;5078459;28;20044;-67
2023/02/25 10:01:10;;;;;;;10.60;1.50;;;7.10;99.90;;;;;;5056801;28;20037;-67
2023/02/25 10:03:47;;;;;;;8.80;1.63;;;6.90;99.90;;;;;;5085846;28;20032;-67
2023/02/25 10:06:37;;;;;;;8.15;1.10;;;6.50;99.90;;;;;;5083032;28;20060;-68
2023/02/25 10:09:37;;;;;;;6.85;1.50;;;6.00;99.90;;;;;;5068399;28;20044;-68
2023/02/25 10:12:22;;;;;;;10.88;1.98;;;5.70;99.90;;;;;;5069263;28;20044;-67
2023/02/25 10:15:12;;;;;;;14.65;2.47;;;6.00;99.90;;;;;;5073572;28;20036;-68
2023/02/25 10:18:03;;;;;;;8.70;2.22;;;6.60;99.90;;;;;;5077655;28;20054;-68
2023/02/25 10:20:50;;;;;;;4.72;0.80;;;7.10;99.90;;;;;;5066587;28;20416;-68
2023/02/25 10:23:30;;;;;;;8.05;1.30;;;7.70;99.90;;;;;;5070487;28;20044;-68
2023/02/25 10:26:06;;;;;;;6.47;0.70;;;8.40;99.90;;;;;;5094043;28;20058;-69
2023/02/25 10:28:34;;;;;;;10.15;1.48;;;8.60;99.90;;;;;;5070202;28;20101;-67
2023/02/25 10:31:08;;;;;;;9.77;1.65;;;9.00;99.90;;;;;;5085727;28;20048;-68
2023/02/25 10:33:36;;;;;;;6.47;1.75;;;8.90;99.90;;;;;;5089183;28;20032;-68
2023/02/25 10:36:10;;;;;;;7.72;1.17;;;8.50;99.90;;;;;;5083982;28;20036;-67
2023/02/25 10:38:44;;;;;;;8.43;1.15;;;9.00;99.90;;;;;;5080034;28;20444;-68
2023/02/25 10:41:10;;;;;;;5.57;1.15;;;9.20;99.90;;;;;;5077572;28;20070;-68
2023/02/25 10:43:36;;;;;;;6.78;1.48;;;9.40;99.90;;;;;;5090338;28;20372;-68
2023/02/25 10:46:14;;;;;;;11.13;1.60;;;10.10;99.90;;;;;;5085957;28;20039;-67
2023/02/25 10:48:43;;;;;;;7.53;1.40;;;10.50;99.90;;;;;;5071554;28;20047;-69
2023/02/25 10:51:14;;;;;;;5.50;1.13;;;9.90;99.90;;;;;;5085009;28;20028;-68
2023/02/25 10:53:52;;;;;;;7.68;1.20;;;9.60;97.60;;;;;;5081137;28;20070;-68
2023/02/25 10:56:19;;;;;;;7.70;1.08;;;9.40;95.80;;;;;;5082358;28;20032;-66
2023/02/25 10:59:06;;;;;;;6.68;1.33;;;9.60;97.70;;;;;;5082075;28;20072;-67
2023/02/25 11:01:38;;;;;;;6.35;1.13;;;9.80;95.10;;;;;;5083253;28;20036;-67
2023/02/25 11:04:13;;;;;;;4.85;0.90;;;10.60;98.50;;;;;;5082280;28;20055;-67
2023/02/25 11:06:41;;;;;;;4.63;0.60;;;10.80;97.70;;;;;;5058929;28;20073;-67
2023/02/25 11:09:19;;;;;;;4.45;0.80;;;11.20;94.30;;;;;;5085244;28;20083;-67
2023/02/25 11:12:16;;;;;;;3.33;0.50;;;11.20;89.60;;;;;;5075619;28;20032;-66
2023/02/25 11:14:42;;;;;;;4.18;0.60;;;11.20;85.60;;;;;;5086701;28;20437;-67
2023/02/25 11:17:21;;;;;;;4.00;0.65;;;10.80;88.10;;;;;;5089087;28;20399;-66
2023/02/25 11:19:56;;;;;;;3.70;0.70;;;10.80;87.10;;;;;;5071067;28;20475;-68
2023/02/25 11:22:30;;;;;;;3.80;0.50;;;10.80;91.10;;;;;;5073606;28;20432;-66
2023/02/25 11:25:02;;;;;;;4.97;0.82;;;11.10;89.90;;;;;;5084846;28;20487;-66
2023/02/25 11:27:42;;;;;;;7.72;1.02;;;11.10;84.10;;;;;;5085559;28;20036;-66
2023/02/25 11:30:19;;;;;;;3.42;0.60;;;10.70;87.50;;;;;;5072979;28;20495;-65
2023/02/25 11:32:53;;;;;;;4.70;0.70;;;10.30;76.60;;;;;;5086726;28;20454;-68
2023/02/25 11:35:28;;;;;;;2.90;0.68;;;10.50;82.50;;;;;;5086207;28;20040;-67
2023/02/25 11:37:58;;;;;;;3.05;0.82;;;10.60;85.20;;;;;;5074123;28;20154;-66
2023/02/25 11:40:30;;;;;;;5.88;1.00;;;10.70;80.00;;;;;;5087272;28;20498;-66
2023/02/25 11:43:26;;;;;;;4.18;0.73;;;11.10;86.40;;;;;;5083386;28;20362;-66
2023/02/25 11:45:55;;;;;;;5.28;1.33;;;11.20;72.00;;;;;;5071374;28;20052;-68
2023/02/25 11:48:28;;;;;;;1.98;0.50;;;10.50;78.00;;;;;;5071472;28;20071;-66
2023/02/25 11:51:06;;;;;;;5.07;0.60;;;10.00;66.50;;;;;;5081183;28;20063;-67
2023/02/25 11:54:09;;;;;;;2.13;0.52;;;9.70;66.80;;;;;;5085016;28;20071;-66
2023/02/25 11:56:38;;;;;;;3.40;0.50;;;9.90;73.20;;;;;;5086604;28;20070;-66
2023/02/25 11:59:28;;;;;;;5.28;0.98;;;9.80;69.40;;;;;;5072319;28;20040;-67
2023/02/25 12:01:56;;;;;;;3.55;0.65;;;10.40;82.50;;;;;;5085644;28;20132;-67
2023/02/25 12:04:28;;;;;;;6.18;1.20;;;10.70;89.10;;;;;;5083710;28;20035;-67
2023/02/25 12:07:15;;;;;;;6.00;1.27;;;11.10;85.30;;;;;;5072880;28;20036;-65
2023/02/25 12:10:13;;;;;;;4.32;0.75;;;10.90;74.70;;;;;;5068013;28;20143;-67
2023/02/25 12:13:03;;;;;;;5.05;0.80;;;9.80;70.00;;;;;;5075566;28;20047;-67
2023/02/25 12:16:01;;;;;;;3.78;0.85;;;9.60;81.20;;;;;;5082443;28;20039;-67
2023/02/25 12:18:57;;;;;;;4.72;0.57;;;10.10;75.70;;;;;;5066660;28;20040;-67
2023/02/25 12:21:48;;;;;;;4.22;0.90;;;10.30;71.10;;;;;;5085011;28;20044;-68
2023/02/25 12:24:34;;;;;;;7.68;0.98;;;10.50;76.30;;;;;;5071128;28;20045;-68
2023/02/25 12:27:36;;;;;;;7.32;1.10;;;10.60;80.00;;;;;;5080291;28;20044;-67
2023/02/25 12:30:23;;;;;;;4.18;0.90;;;10.60;70.50;;;;;;5072097;28;20123;-67
2023/02/25 12:33:38;;;;;;;3.85;0.80;;;10.50;73.80;;;;;;5083743;28;20051;-67
2023/02/25 12:36:16;;;;;;;4.13;0.90;;;9.70;71.40;;;;;;5072837;28;20118;-67
2023/02/25 12:39:08;;;;;;;4.05;0.80;;;9.50;76.90;;;;;;5084028;28;20388;-67
2023/02/25 12:41:54;;;;;;;5.80;1.05;;;9.70;76.50;;;;;;5072309;28;20056;-67
2023/02/25 12:44:52;;;;;;;4.72;1.08;;;9.50;79.90;;;;;;5064408;28;20084;-66
2023/02/25 12:47:44;;;;;;;2.97;0.52;;;8.50;75.70;;;;;;5051686;28;20135;-67
2023/02/25 12:50:19;;;;;;;4.80;0.90;;;7.50;73.70;;;;;;5050431;28;20036;-67
2023/02/25 12:52:50;;;;;;;5.53;1.08;;;6.90;79.40;;;;;;5066484;28;20128;-67
2023/02/25 12:55:27;;;;;;;3.55;0.77;;;6.60;81.30;;;;;;5068368;28;20074;-68
2023/02/25 12:58:10;;;;;;;6.35;0.63;;;6.40;76.20;;;;;;5083335;28;20122;-66
2023/02/25 13:00:58;;;;;;;6.53;0.55;;;6.20;75.30;;;;;;5087113;28;20044;-69
2023/02/25 13:03:44;;;;;;;4.28;0.70;;;6.00;77.60;;;;;;5087768;28;20507;-66
2023/02/25 13:06:37;;;;;;;5.53;0.65;;;5.90;77.30;;;;;;5080146;28;20043;-69
2023/02/25 13:09:48;;;;;;;3.13;0.52;;;5.80;74.00;;;;;;5088007;28;20230;-66
2023/02/25 13:12:25;;;;;;;2.33;0.60;;;5.70;76.00;;;;;;5052162;28;20052;-66
2023/02/25 13:15:00;;;;;;;5.82;0.85;;;5.60;77.30;;;;;;5079158;28;20032;-66